createdAt,value
2022-12-31T00:01:41.129Z,10.15
2022-12-31T00:04:07.645Z,10.27
2022-12-31T00:06:35.683Z,10.23
2022-12-31T00:09:05.689Z,10.20
2022-12-31T00:11:35.004Z,10.23
2022-12-31T00:14:03.447Z,10.26
2022-12-31T00:16:32.022Z,10.31
2022-12-31T00:19:00.289Z,10.33
2022-12-31T00:21:28.460Z,10.33
2022-12-31T00:23:55.463Z,10.32
2022-12-31T00:26:24.119Z,10.34
2022-12-31T00:28:52.020Z,10.40
2022-12-31T00:31:23.129Z,10.49
2022-12-31T00:33:50.062Z,10.47
2022-12-31T00:36:19.288Z,10.51
2022-12-31T00:38:47.731Z,10.47
2022-12-31T00:41:16.382Z,10.45
2022-12-31T00:43:43.571Z,10.39
2022-12-31T00:46:11.492Z,10.34
2022-12-31T00:48:39.620Z,10.29
2022-12-31T00:51:10.481Z,10.35
2022-12-31T00:53:38.274Z,10.30
2022-12-31T00:56:07.685Z,10.23
2022-12-31T00:58:34.784Z,10.31
2022-12-31T01:01:08.743Z,10.26
2022-12-31T01:03:35.612Z,10.32
2022-12-31T01:06:03.914Z,10.42
2022-12-31T01:08:30.618Z,10.35
2022-12-31T01:10:57.126Z,10.30
2022-12-31T01:13:23.627Z,10.27
2022-12-31T01:15:50.190Z,10.22
2022-12-31T01:18:16.888Z,10.16
2022-12-31T01:20:43.949Z,10.15
2022-12-31T01:23:11.917Z,10.21
2022-12-31T01:25:40.233Z,10.27
2022-12-31T01:28:07.484Z,10.30
2022-12-31T01:30:34.121Z,10.32
2022-12-31T01:33:00.861Z,10.35
2022-12-31T01:35:27.450Z,10.40
2022-12-31T01:37:54.015Z,10.41
2022-12-31T01:40:21.853Z,10.51
2022-12-31T01:42:54.271Z,10.48
2022-12-31T01:45:21.024Z,10.61
2022-12-31T01:47:50.611Z,10.65
2022-12-31T01:50:20.960Z,10.72
2022-12-31T01:52:50.570Z,10.79
2022-12-31T01:55:19.926Z,10.83
2022-12-31T01:57:50.986Z,10.85
2022-12-31T02:00:17.753Z,10.88
2022-12-31T02:02:44.570Z,10.86
2022-12-31T02:05:18.649Z,10.83
2022-12-31T02:07:47.331Z,10.94
2022-12-31T02:10:14.056Z,10.94
2022-12-31T02:12:41.092Z,10.90
2022-12-31T02:15:10.309Z,10.95
2022-12-31T02:17:47.756Z,11.04
2022-12-31T02:20:52.905Z,11.12
2022-12-31T02:23:59.715Z,11.12
2022-12-31T02:26:49.615Z,11.18
2022-12-31T02:29:48.848Z,11.14
2022-12-31T02:32:22.082Z,11.06
2022-12-31T02:34:52.744Z,11.01
2022-12-31T02:37:22.240Z,10.97
2022-12-31T02:39:49.579Z,11.00
2022-12-31T02:42:16.100Z,11.07
2022-12-31T02:44:43.185Z,11.04
2022-12-31T02:47:27.053Z,11.08
2022-12-31T02:50:10.997Z,11.23
2022-12-31T02:52:49.787Z,11.27
2022-12-31T02:55:24.388Z,11.27
2022-12-31T02:57:56.813Z,11.41
2022-12-31T03:00:23.812Z,11.41
2022-12-31T03:02:52.791Z,11.45
2022-12-31T03:05:23.280Z,11.46
2022-12-31T03:07:50.032Z,11.53
2022-12-31T03:10:16.851Z,11.48
2022-12-31T03:12:44.339Z,11.52
2022-12-31T03:15:12.123Z,11.50
2022-12-31T03:17:38.819Z,11.41
2022-12-31T03:20:07.594Z,11.60
2022-12-31T03:22:37.308Z,11.50
2022-12-31T03:25:07.453Z,11.61
2022-12-31T03:27:34.037Z,11.60
2022-12-31T03:30:00.784Z,11.57
2022-12-31T03:32:27.312Z,11.57
2022-12-31T03:34:53.869Z,11.64
2022-12-31T03:37:21.981Z,11.53
2022-12-31T03:39:48.495Z,11.57
2022-12-31T03:42:15.008Z,11.55
2022-12-31T03:44:41.531Z,11.57
2022-12-31T03:47:08.070Z,11.58
2022-12-31T03:49:34.772Z,11.67
2022-12-31T03:52:01.294Z,11.64
2022-12-31T03:54:29.490Z,11.62
2022-12-31T03:57:00.108Z,11.65
2022-12-31T03:59:27.107Z,11.60
2022-12-31T04:01:53.744Z,11.63
2022-12-31T04:04:20.605Z,11.66
2022-12-31T04:06:48.103Z,11.58
2022-12-31T04:09:14.725Z,11.66
2022-12-31T04:11:42.611Z,11.59
2022-12-31T04:14:09.172Z,11.52
2022-12-31T04:16:35.812Z,11.65
2022-12-31T04:19:02.424Z,11.69
2022-12-31T04:21:34.803Z,11.70
2022-12-31T04:24:02.115Z,11.71
2022-12-31T04:26:28.886Z,11.72
2022-12-31T04:28:56.794Z,11.75
2022-12-31T04:31:23.553Z,11.73
2022-12-31T04:33:50.158Z,11.78
2022-12-31T04:36:16.911Z,11.81
2022-12-31T04:38:43.652Z,11.83
2022-12-31T04:41:10.287Z,11.83
2022-12-31T04:43:36.772Z,11.88
2022-12-31T04:46:04.950Z,11.94
2022-12-31T04:48:31.502Z,12.00
2022-12-31T04:50:57.997Z,11.94
2022-12-31T04:53:24.684Z,11.96
2022-12-31T04:55:51.261Z,11.90
2022-12-31T04:58:18.470Z,11.90
2022-12-31T05:00:46.183Z,11.92
2022-12-31T05:03:14.240Z,11.93
2022-12-31T05:05:41.422Z,11.92
2022-12-31T05:08:08.115Z,11.94
2022-12-31T05:10:34.682Z,11.96
2022-12-31T05:13:01.511Z,11.91
2022-12-31T05:15:28.082Z,11.93
2022-12-31T05:17:54.815Z,11.83
2022-12-31T05:20:22.709Z,11.87
2022-12-31T05:22:49.297Z,11.79
2022-12-31T05:25:16.123Z,11.81
2022-12-31T05:27:42.960Z,11.80
2022-12-31T05:30:10.830Z,11.92
2022-12-31T05:32:37.911Z,11.94
2022-12-31T05:35:05.601Z,11.93
2022-12-31T05:37:34.101Z,11.97
2022-12-31T05:40:00.685Z,12.04
2022-12-31T05:42:28.507Z,12.05
2022-12-31T05:44:55.188Z,12.06
2022-12-31T05:47:22.235Z,11.99
2022-12-31T05:49:48.980Z,11.97
2022-12-31T05:52:15.541Z,11.95
2022-12-31T05:54:43.664Z,11.96
2022-12-31T05:57:10.268Z,12.01
2022-12-31T05:59:36.877Z,12.04
2022-12-31T06:02:03.455Z,11.99
2022-12-31T06:04:30.312Z,12.01
2022-12-31T06:06:57.001Z,11.99
2022-12-31T06:09:23.786Z,12.03
2022-12-31T06:11:51.864Z,12.12
2022-12-31T06:14:18.397Z,12.16
2022-12-31T06:16:45.135Z,12.13
2022-12-31T06:19:11.688Z,12.06
2022-12-31T06:21:38.187Z,12.16
2022-12-31T06:24:05.370Z,12.20
2022-12-31T06:26:31.919Z,12.24
2022-12-31T06:28:59.970Z,12.28
2022-12-31T06:31:26.538Z,12.35
2022-12-31T06:33:53.415Z,12.36
2022-12-31T06:36:19.947Z,12.35
2022-12-31T06:38:46.595Z,12.42
2022-12-31T06:41:15.097Z,12.43
2022-12-31T06:43:42.611Z,12.41
2022-12-31T06:46:13.736Z,12.40
2022-12-31T06:48:41.005Z,12.51
2022-12-31T06:51:16.568Z,12.50
2022-12-31T06:53:43.834Z,12.44
2022-12-31T06:56:15.436Z,12.49
2022-12-31T06:58:42.643Z,12.53
2022-12-31T07:01:27.955Z,12.51
2022-12-31T07:04:01.396Z,12.54
2022-12-31T07:06:33.195Z,12.52
2022-12-31T07:09:05.805Z,12.52
2022-12-31T07:11:38.905Z,12.58
2022-12-31T07:14:17.532Z,12.59
2022-12-31T07:16:55.129Z,12.65
2022-12-31T07:19:35.839Z,12.61
2022-12-31T07:22:03.067Z,12.59
2022-12-31T07:24:30.260Z,12.63
2022-12-31T07:27:08.198Z,12.68
2022-12-31T07:29:49.834Z,12.60
2022-12-31T07:32:32.843Z,12.66
2022-12-31T07:35:09.221Z,12.74
2022-12-31T07:37:43.756Z,12.80
2022-12-31T07:40:18.430Z,12.79
2022-12-31T07:43:02.995Z,12.76
2022-12-31T07:45:37.604Z,12.77
2022-12-31T07:48:24.723Z,12.79
2022-12-31T07:50:53.661Z,12.86
2022-12-31T07:53:21.071Z,12.92
2022-12-31T07:55:52.069Z,13.00
2022-12-31T07:58:24.978Z,12.95
2022-12-31T08:00:53.484Z,13.06
2022-12-31T08:03:38.382Z,13.10
2022-12-31T08:06:11.661Z,13.12
2022-12-31T08:08:48.226Z,13.11
2022-12-31T08:11:24.901Z,13.11
2022-12-31T08:13:54.173Z,13.11
2022-12-31T08:16:21.328Z,13.08
2022-12-31T08:18:50.030Z,13.12
2022-12-31T08:21:35.025Z,13.04
2022-12-31T08:24:16.134Z,13.06
2022-12-31T08:26:53.541Z,13.18
2022-12-31T08:29:35.658Z,13.15
2022-12-31T08:32:10.614Z,13.18
2022-12-31T08:34:47.689Z,13.21
2022-12-31T08:37:23.575Z,13.29
2022-12-31T08:40:07.558Z,13.24
2022-12-31T08:42:43.839Z,13.19
2022-12-31T08:45:17.209Z,13.18
2022-12-31T08:47:57.980Z,13.24
2022-12-31T08:50:28.653Z,13.23
2022-12-31T08:52:56.023Z,13.26
2022-12-31T08:55:23.301Z,13.24
2022-12-31T08:57:58.544Z,13.22
2022-12-31T09:00:27.467Z,13.25
2022-12-31T09:03:24.230Z,13.36
2022-12-31T09:06:02.243Z,13.35
2022-12-31T09:08:38.766Z,13.30
2022-12-31T09:11:16.379Z,13.29
2022-12-31T09:14:12.752Z,13.25
2022-12-31T09:16:48.608Z,13.34
2022-12-31T09:19:15.220Z,13.32
2022-12-31T09:21:43.658Z,13.28
2022-12-31T09:24:12.189Z,13.35
2022-12-31T09:26:48.242Z,13.27
2022-12-31T09:29:35.570Z,13.22
2022-12-31T09:32:09.190Z,13.25
2022-12-31T09:34:41.727Z,13.28
2022-12-31T09:37:16.337Z,13.28
2022-12-31T09:39:45.404Z,13.27
2022-12-31T09:42:51.160Z,13.30
2022-12-31T09:45:59.924Z,13.31
2022-12-31T09:48:58.683Z,13.29
2022-12-31T09:51:29.687Z,13.47
2022-12-31T09:54:36.541Z,13.50
2022-12-31T09:57:36.836Z,13.51
2022-12-31T10:00:09.905Z,13.46
2022-12-31T10:03:00.529Z,13.55
2022-12-31T10:05:56.387Z,13.53
2022-12-31T10:08:38.477Z,13.55
2022-12-31T10:11:16.697Z,13.51
2022-12-31T10:13:55.099Z,13.53
2022-12-31T10:16:44.010Z,13.48
2022-12-31T10:19:39.455Z,13.49
2022-12-31T10:22:24.854Z,13.59
2022-12-31T10:25:19.561Z,13.64
2022-12-31T10:27:54.739Z,13.62
2022-12-31T10:30:23.093Z,13.59
2022-12-31T10:33:04.931Z,13.66
2022-12-31T10:35:39.713Z,13.68
2022-12-31T10:38:20.913Z,13.72
2022-12-31T10:41:14.654Z,13.71
2022-12-31T10:44:14.734Z,13.66
2022-12-31T10:47:09.009Z,13.72
2022-12-31T10:50:03.993Z,13.75
2022-12-31T10:53:06.581Z,13.72
2022-12-31T10:56:07.581Z,13.75
2022-12-31T10:59:09.566Z,13.78
2022-12-31T11:01:48.207Z,13.77
2022-12-31T11:04:49.055Z,13.79
2022-12-31T11:07:43.257Z,13.82
2022-12-31T11:10:47.450Z,13.88
2022-12-31T11:13:48.665Z,13.97
2022-12-31T11:16:34.358Z,13.95
2022-12-31T11:19:10.167Z,13.91
2022-12-31T11:21:49.654Z,13.90
2022-12-31T11:24:29.725Z,13.81
2022-12-31T11:27:13.464Z,13.79
2022-12-31T11:29:52.608Z,13.80
2022-12-31T11:32:37.899Z,13.76
2022-12-31T11:35:36.945Z,13.79
2022-12-31T11:38:14.737Z,13.79
2022-12-31T11:40:46.369Z,13.80
2022-12-31T11:43:23.588Z,13.81
2022-12-31T11:46:16.832Z,13.81
2022-12-31T11:48:52.375Z,13.83
2022-12-31T11:51:39.562Z,13.82
2022-12-31T11:54:39.740Z,13.90
2022-12-31T11:57:16.521Z,13.98
2022-12-31T11:59:43.131Z,14.08
2022-12-31T12:02:24.311Z,14.12
2022-12-31T12:04:51.916Z,14.18
2022-12-31T12:07:21.510Z,14.19
2022-12-31T12:09:48.914Z,14.23
2022-12-31T12:12:15.434Z,14.27
2022-12-31T12:14:44.117Z,14.29
2022-12-31T12:17:16.454Z,14.30
2022-12-31T12:19:46.462Z,14.30
2022-12-31T12:22:19.707Z,14.28
2022-12-31T12:24:54.628Z,14.26
2022-12-31T12:27:23.792Z,14.25
2022-12-31T12:29:50.431Z,14.24
2022-12-31T12:32:18.991Z,14.25
2022-12-31T12:34:49.616Z,14.30
2022-12-31T12:37:28.950Z,14.32
2022-12-31T12:39:58.833Z,14.29
2022-12-31T12:42:25.551Z,14.32
2022-12-31T12:45:01.701Z,14.31
2022-12-31T12:47:28.774Z,14.32
2022-12-31T12:49:55.746Z,14.30
2022-12-31T12:52:43.138Z,14.30
2022-12-31T12:55:19.614Z,14.32
2022-12-31T12:57:53.936Z,14.29
2022-12-31T13:00:21.959Z,14.30
2022-12-31T13:03:17.360Z,14.22
2022-12-31T13:05:58.442Z,14.21
2022-12-31T13:08:51.543Z,14.28
2022-12-31T13:11:32.606Z,14.28
2022-12-31T13:14:06.043Z,14.28
2022-12-31T13:16:40.355Z,14.42
2022-12-31T13:19:14.783Z,14.47
2022-12-31T13:21:48.894Z,14.49
2022-12-31T13:24:36.349Z,14.54
2022-12-31T13:27:12.545Z,14.55
2022-12-31T13:29:41.977Z,14.55
2022-12-31T13:32:15.253Z,14.54
2022-12-31T13:34:45.551Z,14.54
2022-12-31T13:37:22.592Z,14.51
2022-12-31T13:40:01.314Z,14.45
2022-12-31T13:42:39.344Z,14.40
2022-12-31T13:45:13.374Z,14.35
2022-12-31T13:47:44.551Z,14.29
2022-12-31T13:50:19.663Z,14.23
2022-12-31T13:52:52.186Z,14.22
2022-12-31T13:55:22.824Z,14.23
2022-12-31T13:57:53.951Z,14.17
2022-12-31T14:00:23.237Z,14.08
2022-12-31T14:02:59.216Z,14.08
2022-12-31T14:05:31.974Z,14.07
2022-12-31T14:08:01.485Z,14.03
2022-12-31T14:10:40.126Z,14.01
2022-12-31T14:13:35.005Z,13.96
2022-12-31T14:16:11.535Z,13.96
2022-12-31T14:18:47.715Z,13.92
2022-12-31T14:21:20.976Z,13.89
2022-12-31T14:23:53.780Z,13.88
2022-12-31T14:26:24.591Z,13.83
2022-12-31T14:29:04.159Z,13.85
2022-12-31T14:31:45.059Z,13.84
2022-12-31T14:34:18.555Z,13.80
2022-12-31T14:36:57.197Z,13.75
2022-12-31T14:39:36.481Z,13.73
2022-12-31T14:42:12.798Z,13.66
2022-12-31T14:44:56.851Z,13.66
2022-12-31T14:47:36.812Z,13.70
2022-12-31T14:50:09.536Z,13.69
2022-12-31T14:52:49.361Z,13.66
2022-12-31T14:55:27.826Z,13.60
2022-12-31T14:58:26.586Z,13.54
2022-12-31T15:00:53.092Z,13.49
2022-12-31T15:03:24.948Z,13.46
2022-12-31T15:05:54.452Z,13.43
2022-12-31T15:08:39.433Z,13.41
2022-12-31T15:11:18.146Z,13.43
2022-12-31T15:14:02.199Z,13.40
2022-12-31T15:16:43.775Z,13.33
2022-12-31T15:19:49.518Z,13.45
2022-12-31T15:22:30.055Z,13.40
2022-12-31T15:24:56.778Z,13.34
2022-12-31T15:27:34.001Z,13.33
2022-12-31T15:30:01.536Z,13.32
2022-12-31T15:32:36.537Z,13.28
2022-12-31T15:35:05.045Z,13.24
2022-12-31T15:37:34.072Z,13.31
2022-12-31T15:40:19.760Z,13.28
2022-12-31T15:42:50.322Z,13.27
2022-12-31T15:45:23.094Z,13.26
2022-12-31T15:47:56.367Z,13.30
2022-12-31T15:50:24.978Z,13.28
2022-12-31T15:52:53.924Z,13.24
2022-12-31T15:55:27.015Z,13.23
2022-12-31T15:57:55.415Z,13.24
2022-12-31T16:00:23.759Z,13.23
2022-12-31T16:02:54.368Z,13.17
2022-12-31T16:05:23.577Z,13.14
2022-12-31T16:07:53.682Z,13.05
2022-12-31T16:10:26.796Z,13.04
2022-12-31T16:12:54.972Z,13.08
2022-12-31T16:15:23.476Z,13.09
2022-12-31T16:18:03.072Z,12.99
2022-12-31T16:20:31.327Z,13.02
2022-12-31T16:22:59.848Z,13.03
2022-12-31T16:25:31.459Z,13.07
2022-12-31T16:28:01.816Z,13.14
2022-12-31T16:30:31.060Z,13.18
2022-12-31T16:33:01.890Z,13.13
2022-12-31T16:35:30.275Z,13.13
2022-12-31T16:38:14.974Z,13.19
2022-12-31T16:40:43.299Z,13.07
2022-12-31T16:43:25.736Z,13.13
2022-12-31T16:45:52.740Z,13.02
2022-12-31T16:48:20.977Z,13.11
2022-12-31T16:50:50.599Z,13.16
2022-12-31T16:53:20.658Z,13.14
2022-12-31T16:55:53.001Z,13.09
2022-12-31T17:00:51.638Z,13.07
2022-12-31T17:03:22.487Z,13.08
2022-12-31T17:06:02.009Z,13.18
2022-12-31T17:08:38.684Z,13.11
2022-12-31T17:11:05.505Z,13.10
2022-12-31T17:13:34.953Z,13.00
2022-12-31T17:16:02.068Z,12.93
2022-12-31T17:18:36.150Z,13.00
2022-12-31T17:21:07.775Z,13.07
2022-12-31T17:23:36.853Z,13.11
2022-12-31T17:26:09.704Z,13.15
2022-12-31T17:28:43.262Z,13.09
2022-12-31T17:31:27.924Z,13.04
2022-12-31T17:34:29.143Z,13.04
2022-12-31T17:37:14.432Z,13.13
2022-12-31T17:39:49.970Z,13.16
2022-12-31T17:42:24.925Z,13.24
2022-12-31T17:44:55.694Z,13.20
2022-12-31T17:47:22.418Z,13.15
2022-12-31T17:49:50.551Z,13.11
2022-12-31T17:52:17.100Z,13.22
2022-12-31T17:54:43.651Z,13.15
2022-12-31T17:57:23.743Z,13.04
2022-12-31T17:59:50.408Z,13.08
2022-12-31T18:02:17.239Z,13.18
2022-12-31T18:04:43.872Z,13.13
2022-12-31T18:07:11.772Z,13.27
2022-12-31T18:09:38.462Z,13.16
2022-12-31T18:12:06.551Z,13.14
2022-12-31T18:14:33.503Z,13.12
2022-12-31T18:17:00.080Z,13.19
2022-12-31T18:22:15.836Z,13.21
2022-12-31T18:24:42.651Z,13.07
2022-12-31T18:27:15.162Z,13.01
2022-12-31T18:29:41.704Z,12.98
2022-12-31T18:32:19.782Z,13.05
2022-12-31T18:34:46.373Z,13.03
2022-12-31T18:37:21.264Z,13.04
2022-12-31T18:39:48.491Z,13.02
2022-12-31T18:42:17.388Z,13.02
2022-12-31T18:44:44.557Z,13.05
2022-12-31T18:47:12.419Z,12.94
2022-12-31T18:49:39.371Z,12.91
2022-12-31T18:52:06.178Z,12.92
2022-12-31T18:54:34.024Z,12.83
2022-12-31T18:57:00.746Z,12.75
2022-12-31T18:59:27.333Z,12.83
2022-12-31T19:01:54.038Z,12.99
2022-12-31T19:04:26.923Z,13.01
2022-12-31T19:06:54.753Z,12.94
2022-12-31T19:09:44.560Z,13.02
2022-12-31T19:12:13.264Z,12.99
2022-12-31T19:14:39.972Z,12.93
2022-12-31T19:19:31.988Z,12.98
2022-12-31T19:21:58.541Z,13.11
2022-12-31T19:24:26.649Z,13.11
2022-12-31T19:26:54.392Z,13.04
2022-12-31T19:29:24.262Z,13.01
2022-12-31T19:31:51.444Z,12.85
2022-12-31T19:34:18.536Z,12.85
2022-12-31T19:36:46.836Z,12.83
2022-12-31T19:39:19.133Z,12.82
2022-12-31T19:41:47.549Z,12.92
2022-12-31T19:44:19.143Z,12.90
2022-12-31T19:46:47.463Z,12.84
2022-12-31T19:49:14.426Z,12.82
2022-12-31T19:51:42.043Z,12.78
2022-12-31T19:54:08.756Z,12.74
2022-12-31T19:56:35.627Z,12.76
2022-12-31T19:59:04.275Z,12.83
2022-12-31T20:01:30.895Z,12.83
2022-12-31T20:03:58.899Z,12.76
2022-12-31T20:06:25.453Z,12.98
2022-12-31T20:08:52.208Z,12.89
2022-12-31T20:11:20.707Z,12.83
2022-12-31T20:13:48.815Z,12.77
2022-12-31T20:16:18.205Z,12.89
2022-12-31T20:18:46.412Z,12.88
2022-12-31T20:21:16.371Z,12.75
2022-12-31T20:23:43.363Z,12.83
2022-12-31T20:26:12.904Z,12.74
2022-12-31T20:28:40.087Z,12.82
2022-12-31T20:31:07.513Z,12.87
2022-12-31T20:33:34.229Z,12.86
2022-12-31T20:36:01.760Z,12.82
2022-12-31T20:38:29.840Z,12.72
2022-12-31T20:41:02.681Z,12.76
2022-12-31T20:43:30.182Z,12.71
2022-12-31T20:45:56.695Z,12.70
2022-12-31T20:48:23.469Z,12.69
2022-12-31T20:50:54.388Z,12.57
2022-12-31T20:53:20.900Z,12.57
2022-12-31T20:55:48.951Z,12.56
2022-12-31T20:58:16.040Z,12.62
2022-12-31T21:00:47.814Z,12.56
2022-12-31T21:03:36.625Z,12.67
2022-12-31T21:06:01.297Z,12.73
2022-12-31T21:08:34.384Z,12.70
2022-12-31T21:11:03.263Z,12.74
2022-12-31T21:13:29.783Z,12.66
2022-12-31T21:15:56.349Z,12.59
2022-12-31T21:18:23.127Z,12.52
2022-12-31T21:20:51.580Z,12.53
2022-12-31T21:23:19.852Z,12.49
2022-12-31T21:25:49.523Z,12.58
2022-12-31T21:28:17.429Z,12.52
2022-12-31T21:30:44.005Z,12.57
2022-12-31T21:33:10.711Z,12.56
2022-12-31T21:35:44.529Z,12.38
2022-12-31T21:38:15.615Z,12.46
2022-12-31T21:40:42.384Z,12.54
2022-12-31T21:43:08.915Z,12.48
2022-12-31T21:45:37.123Z,12.52
2022-12-31T21:48:04.373Z,12.48
2022-12-31T21:50:30.905Z,12.45
2022-12-31T21:52:57.449Z,12.40
2022-12-31T21:55:23.993Z,12.35
2022-12-31T21:58:24.899Z,12.44
2022-12-31T22:00:42.677Z,12.34
2022-12-31T22:03:11.858Z,12.35
2022-12-31T22:05:39.177Z,12.34
2022-12-31T22:08:05.759Z,12.37
2022-12-31T22:10:36.977Z,12.38
2022-12-31T22:13:04.299Z,12.25
2022-12-31T22:15:30.859Z,12.27
2022-12-31T22:17:58.940Z,12.24
2022-12-31T22:20:27.966Z,12.23
2022-12-31T22:22:55.231Z,12.21
2022-12-31T22:25:21.842Z,12.13
2022-12-31T22:28:04.464Z,12.02
2022-12-31T22:30:34.990Z,11.97
2022-12-31T22:33:03.007Z,12.03
2022-12-31T22:35:29.625Z,11.93
2022-12-31T22:38:00.204Z,11.94
2022-12-31T22:40:29.943Z,11.93
2022-12-31T22:42:56.505Z,11.98
2022-12-31T22:45:23.116Z,12.03
2022-12-31T22:47:49.816Z,11.94
2022-12-31T22:50:18.300Z,11.95
2022-12-31T22:52:44.832Z,11.89
2022-12-31T22:55:11.711Z,11.78
2022-12-31T22:57:38.283Z,11.79
2022-12-31T23:00:10.843Z,11.85
2022-12-31T23:02:41.663Z,11.87
2022-12-31T23:05:15.263Z,11.79
2022-12-31T23:07:44.335Z,11.82
2022-12-31T23:10:11.028Z,11.86
2022-12-31T23:12:37.746Z,11.76
2022-12-31T23:15:04.970Z,11.74
2022-12-31T23:17:32.264Z,11.70
2022-12-31T23:19:59.093Z,11.74
2022-12-31T23:22:25.627Z,11.78
2022-12-31T23:24:53.784Z,11.69
2022-12-31T23:27:20.333Z,11.69
2022-12-31T23:29:47.788Z,11.61
2022-12-31T23:32:15.783Z,11.55
2022-12-31T23:34:42.806Z,11.79
2022-12-31T23:37:09.334Z,11.79
2022-12-31T23:39:36.035Z,11.70
2022-12-31T23:42:04.359Z,11.59
2022-12-31T23:44:31.057Z,11.58
2022-12-31T23:46:57.707Z,11.67
2022-12-31T23:49:24.472Z,11.70
2022-12-31T23:51:51.050Z,11.80
2022-12-31T23:54:17.596Z,11.64
2022-12-31T23:56:44.326Z,11.73
2022-12-31T23:59:12.847Z,11.65
